sensor_id;sensor_type;location;lat;lon;timestamp;P1;durP1;ratioP1;P2;durP2;ratioP2
25717;SDS011;13574;52.040;5.692;2022-07-25T00:00:21;7.45;;;5.35;;
25717;SDS011;13574;52.040;5.692;2022-07-25T00:02:47;7.95;;;4.97;;
25717;SDS011;13574;52.040;5.692;2022-07-25T00:05:13;6.05;;;5.05;;
25717;SDS011;13574;52.040;5.692;2022-07-25T00:07:39;7.20;;;4.80;;
25717;SDS011;13574;52.040;5.692;2022-07-25T00:10:04;6.95;;;5.20;;
25717;SDS011;13574;52.040;5.692;2022-07-25T00:12:31;5.60;;;5.03;;
25717;SDS011;13574;52.040;5.692;2022-07-25T00:14:57;6.15;;;5.10;;
25717;SDS011;13574;52.040;5.692;2022-07-25T00:17:22;7.63;;;5.65;;
25717;SDS011;13574;52.040;5.692;2022-07-25T00:19:48;6.63;;;5.28;;
25717;SDS011;13574;52.040;5.692;2022-07-25T00:22:14;6.22;;;5.60;;
25717;SDS011;13574;52.040;5.692;2022-07-25T00:24:40;7.57;;;5.75;;
25717;SDS011;13574;52.040;5.692;2022-07-25T00:27:05;7.63;;;6.03;;
25717;SDS011;13574;52.040;5.692;2022-07-25T00:29:31;6.55;;;5.88;;
25717;SDS011;13574;52.040;5.692;2022-07-25T00:31:57;7.13;;;6.05;;
25717;SDS011;13574;52.040;5.692;2022-07-25T00:34:23;7.03;;;5.93;;
25717;SDS011;13574;52.040;5.692;2022-07-25T00:36:48;8.38;;;6.57;;
25717;SDS011;13574;52.040;5.692;2022-07-25T00:39:14;7.60;;;6.80;;
25717;SDS011;13574;52.040;5.692;2022-07-25T00:41:39;8.65;;;6.57;;
25717;SDS011;13574;52.040;5.692;2022-07-25T00:44:06;7.38;;;6.57;;
25717;SDS011;13574;52.040;5.692;2022-07-25T00:46:31;8.65;;;7.07;;
25717;SDS011;13574;52.040;5.692;2022-07-25T00:48:57;9.40;;;6.75;;
25717;SDS011;13574;52.040;5.692;2022-07-25T00:51:23;9.77;;;6.57;;
25717;SDS011;13574;52.040;5.692;2022-07-25T00:53:49;11.52;;;6.88;;
25717;SDS011;13574;52.040;5.692;2022-07-25T00:56:15;8.20;;;6.93;;
25717;SDS011;13574;52.040;5.692;2022-07-25T00:58:41;10.10;;;7.10;;
25717;SDS011;13574;52.040;5.692;2022-07-25T01:01:09;8.48;;;6.70;;
25717;SDS011;13574;52.040;5.692;2022-07-25T01:03:34;10.65;;;6.68;;
25717;SDS011;13574;52.040;5.692;2022-07-25T01:06:00;11.20;;;7.63;;
25717;SDS011;13574;52.040;5.692;2022-07-25T01:08:26;9.68;;;6.80;;
25717;SDS011;13574;52.040;5.692;2022-07-25T01:10:52;8.52;;;6.95;;
25717;SDS011;13574;52.040;5.692;2022-07-25T01:13:18;8.73;;;7.15;;
25717;SDS011;13574;52.040;5.692;2022-07-25T01:15:44;9.48;;;7.60;;
25717;SDS011;13574;52.040;5.692;2022-07-25T01:18:10;8.07;;;7.25;;
25717;SDS011;13574;52.040;5.692;2022-07-25T01:20:35;8.02;;;6.93;;
25717;SDS011;13574;52.040;5.692;2022-07-25T01:23:01;10.10;;;7.22;;
25717;SDS011;13574;52.040;5.692;2022-07-25T01:25:27;9.00;;;7.13;;
25717;SDS011;13574;52.040;5.692;2022-07-25T01:27:53;9.23;;;7.43;;
25717;SDS011;13574;52.040;5.692;2022-07-25T01:30:20;8.45;;;7.45;;
25717;SDS011;13574;52.040;5.692;2022-07-25T01:32:46;9.85;;;7.20;;
25717;SDS011;13574;52.040;5.692;2022-07-25T01:35:12;10.70;;;7.40;;
25717;SDS011;13574;52.040;5.692;2022-07-25T01:37:39;9.40;;;7.20;;
25717;SDS011;13574;52.040;5.692;2022-07-25T01:40:05;10.80;;;8.25;;
25717;SDS011;13574;52.040;5.692;2022-07-25T01:42:32;9.95;;;8.02;;
25717;SDS011;13574;52.040;5.692;2022-07-25T01:44:58;8.90;;;7.25;;
25717;SDS011;13574;52.040;5.692;2022-07-25T01:47:24;12.27;;;7.80;;
25717;SDS011;13574;52.040;5.692;2022-07-25T01:49:50;10.55;;;7.68;;
25717;SDS011;13574;52.040;5.692;2022-07-25T01:52:15;8.63;;;7.10;;
25717;SDS011;13574;52.040;5.692;2022-07-25T01:54:41;9.05;;;7.35;;
25717;SDS011;13574;52.040;5.692;2022-07-25T01:57:07;10.32;;;8.30;;
25717;SDS011;13574;52.040;5.692;2022-07-25T01:59:36;9.43;;;7.38;;
25717;SDS011;13574;52.040;5.692;2022-07-25T02:02:03;9.23;;;7.75;;
25717;SDS011;13574;52.040;5.692;2022-07-25T02:04:30;8.23;;;7.28;;
25717;SDS011;13574;52.040;5.692;2022-07-25T02:06:56;8.70;;;7.80;;
25717;SDS011;13574;52.040;5.692;2022-07-25T02:09:21;9.30;;;7.88;;
25717;SDS011;13574;52.040;5.692;2022-07-25T02:11:47;9.73;;;7.15;;
25717;SDS011;13574;52.040;5.692;2022-07-25T02:14:13;8.82;;;7.30;;
25717;SDS011;13574;52.040;5.692;2022-07-25T02:16:38;9.18;;;7.28;;
25717;SDS011;13574;52.040;5.692;2022-07-25T02:19:04;11.50;;;7.60;;
25717;SDS011;13574;52.040;5.692;2022-07-25T02:21:30;12.90;;;6.97;;
25717;SDS011;13574;52.040;5.692;2022-07-25T02:23:55;8.52;;;7.32;;
25717;SDS011;13574;52.040;5.692;2022-07-25T02:26:21;8.93;;;7.28;;
25717;SDS011;13574;52.040;5.692;2022-07-25T02:28:47;7.88;;;7.07;;
25717;SDS011;13574;52.040;5.692;2022-07-25T02:31:13;9.57;;;7.30;;
25717;SDS011;13574;52.040;5.692;2022-07-25T02:33:39;9.10;;;7.05;;
25717;SDS011;13574;52.040;5.692;2022-07-25T02:36:05;7.78;;;6.72;;
25717;SDS011;13574;52.040;5.692;2022-07-25T02:38:31;9.02;;;6.75;;
25717;SDS011;13574;52.040;5.692;2022-07-25T02:40:56;9.40;;;7.07;;
25717;SDS011;13574;52.040;5.692;2022-07-25T02:43:22;9.95;;;7.30;;
25717;SDS011;13574;52.040;5.692;2022-07-25T02:45:48;11.63;;;7.45;;
25717;SDS011;13574;52.040;5.692;2022-07-25T02:48:13;9.13;;;7.90;;
25717;SDS011;13574;52.040;5.692;2022-07-25T02:50:39;10.23;;;7.32;;
25717;SDS011;13574;52.040;5.692;2022-07-25T02:53:05;8.38;;;7.45;;
25717;SDS011;13574;52.040;5.692;2022-07-25T02:55:31;9.50;;;7.72;;
25717;SDS011;13574;52.040;5.692;2022-07-25T02:57:56;7.82;;;6.90;;
25717;SDS011;13574;52.040;5.692;2022-07-25T03:00:22;9.43;;;7.82;;
25717;SDS011;13574;52.040;5.692;2022-07-25T03:02:48;8.75;;;7.30;;
25717;SDS011;13574;52.040;5.692;2022-07-25T03:05:14;7.97;;;6.60;;
25717;SDS011;13574;52.040;5.692;2022-07-25T03:07:41;8.73;;;7.47;;
25717;SDS011;13574;52.040;5.692;2022-07-25T03:10:08;10.73;;;7.47;;
25717;SDS011;13574;52.040;5.692;2022-07-25T03:12:36;9.85;;;7.72;;
25717;SDS011;13574;52.040;5.692;2022-07-25T03:15:02;8.27;;;6.82;;
25717;SDS011;13574;52.040;5.692;2022-07-25T03:17:29;8.30;;;7.40;;
25717;SDS011;13574;52.040;5.692;2022-07-25T03:19:55;9.35;;;7.57;;
25717;SDS011;13574;52.040;5.692;2022-07-25T03:22:21;10.18;;;8.85;;
25717;SDS011;13574;52.040;5.692;2022-07-25T03:24:47;10.00;;;8.23;;
25717;SDS011;13574;52.040;5.692;2022-07-25T03:27:13;9.65;;;7.70;;
25717;SDS011;13574;52.040;5.692;2022-07-25T03:29:39;9.20;;;8.15;;
25717;SDS011;13574;52.040;5.692;2022-07-25T03:32:06;10.98;;;8.57;;
25717;SDS011;13574;52.040;5.692;2022-07-25T03:34:32;11.35;;;7.88;;
25717;SDS011;13574;52.040;5.692;2022-07-25T03:36:58;9.50;;;7.97;;
25717;SDS011;13574;52.040;5.692;2022-07-25T03:39:24;11.23;;;9.88;;
25717;SDS011;13574;52.040;5.692;2022-07-25T03:41:51;11.43;;;10.00;;
25717;SDS011;13574;52.040;5.692;2022-07-25T03:44:17;11.88;;;9.57;;
25717;SDS011;13574;52.040;5.692;2022-07-25T03:46:44;12.23;;;10.40;;
25717;SDS011;13574;52.040;5.692;2022-07-25T03:49:10;11.13;;;9.65;;
25717;SDS011;13574;52.040;5.692;2022-07-25T03:51:35;11.95;;;10.00;;
25717;SDS011;13574;52.040;5.692;2022-07-25T03:54:01;9.68;;;8.68;;
25717;SDS011;13574;52.040;5.692;2022-07-25T03:56:49;12.20;;;10.23;;
25717;SDS011;13574;52.040;5.692;2022-07-25T03:59:18;14.02;;;10.95;;
25717;SDS011;13574;52.040;5.692;2022-07-25T04:01:46;13.55;;;11.10;;
25717;SDS011;13574;52.040;5.692;2022-07-25T04:04:13;11.70;;;10.15;;
25717;SDS011;13574;52.040;5.692;2022-07-25T04:06:39;15.75;;;11.30;;
25717;SDS011;13574;52.040;5.692;2022-07-25T04:09:06;14.85;;;11.30;;
25717;SDS011;13574;52.040;5.692;2022-07-25T04:11:32;13.13;;;10.48;;
25717;SDS011;13574;52.040;5.692;2022-07-25T04:14:00;13.95;;;11.35;;
25717;SDS011;13574;52.040;5.692;2022-07-25T04:16:29;13.55;;;10.88;;
25717;SDS011;13574;52.040;5.692;2022-07-25T04:18:55;15.27;;;11.18;;
25717;SDS011;13574;52.040;5.692;2022-07-25T04:21:21;12.60;;;9.98;;
25717;SDS011;13574;52.040;5.692;2022-07-25T04:23:48;13.95;;;11.60;;
25717;SDS011;13574;52.040;5.692;2022-07-25T04:26:14;15.43;;;11.27;;
25717;SDS011;13574;52.040;5.692;2022-07-25T04:28:40;15.02;;;10.10;;
25717;SDS011;13574;52.040;5.692;2022-07-25T04:31:05;11.25;;;9.90;;
25717;SDS011;13574;52.040;5.692;2022-07-25T04:33:31;14.75;;;11.95;;
25717;SDS011;13574;52.040;5.692;2022-07-25T04:35:57;12.20;;;10.25;;
25717;SDS011;13574;52.040;5.692;2022-07-25T04:38:22;16.45;;;11.48;;
25717;SDS011;13574;52.040;5.692;2022-07-25T04:40:48;14.23;;;11.13;;
25717;SDS011;13574;52.040;5.692;2022-07-25T04:43:14;15.32;;;11.15;;
25717;SDS011;13574;52.040;5.692;2022-07-25T04:45:40;12.23;;;10.93;;
25717;SDS011;13574;52.040;5.692;2022-07-25T04:48:05;13.07;;;11.68;;
25717;SDS011;13574;52.040;5.692;2022-07-25T04:50:31;13.18;;;11.02;;
25717;SDS011;13574;52.040;5.692;2022-07-25T04:52:57;14.93;;;11.35;;
25717;SDS011;13574;52.040;5.692;2022-07-25T04:55:22;12.13;;;10.73;;
25717;SDS011;13574;52.040;5.692;2022-07-25T04:57:48;14.05;;;11.38;;
25717;SDS011;13574;52.040;5.692;2022-07-25T05:00:14;14.52;;;10.95;;
25717;SDS011;13574;52.040;5.692;2022-07-25T05:02:40;14.07;;;11.32;;
25717;SDS011;13574;52.040;5.692;2022-07-25T05:05:06;15.82;;;10.88;;
25717;SDS011;13574;52.040;5.692;2022-07-25T05:07:33;14.65;;;10.68;;
25717;SDS011;13574;52.040;5.692;2022-07-25T05:09:59;15.77;;;11.55;;
25717;SDS011;13574;52.040;5.692;2022-07-25T05:12:24;14.63;;;11.60;;
25717;SDS011;13574;52.040;5.692;2022-07-25T05:14:50;14.80;;;11.27;;
25717;SDS011;13574;52.040;5.692;2022-07-25T05:17:16;16.15;;;12.60;;
25717;SDS011;13574;52.040;5.692;2022-07-25T05:19:42;13.45;;;10.73;;
25717;SDS011;13574;52.040;5.692;2022-07-25T05:22:07;15.52;;;11.70;;
25717;SDS011;13574;52.040;5.692;2022-07-25T05:24:33;13.43;;;10.55;;
25717;SDS011;13574;52.040;5.692;2022-07-25T05:26:59;12.95;;;10.80;;
25717;SDS011;13574;52.040;5.692;2022-07-25T05:29:26;13.23;;;10.75;;
25717;SDS011;13574;52.040;5.692;2022-07-25T05:31:52;16.75;;;11.23;;
25717;SDS011;13574;52.040;5.692;2022-07-25T05:34:17;13.25;;;11.20;;
25717;SDS011;13574;52.040;5.692;2022-07-25T05:42:40;13.00;;;10.13;;
25717;SDS011;13574;52.040;5.692;2022-07-25T05:45:08;12.15;;;9.90;;
25717;SDS011;13574;52.040;5.692;2022-07-25T05:47:34;13.45;;;10.52;;
25717;SDS011;13574;52.040;5.692;2022-07-25T05:49:59;14.07;;;10.52;;
25717;SDS011;13574;52.040;5.692;2022-07-25T05:52:25;13.32;;;10.93;;
25717;SDS011;13574;52.040;5.692;2022-07-25T05:54:51;14.75;;;11.75;;
25717;SDS011;13574;52.040;5.692;2022-07-25T05:57:17;13.00;;;10.55;;
25717;SDS011;13574;52.040;5.692;2022-07-25T05:59:42;14.52;;;11.85;;
25717;SDS011;13574;52.040;5.692;2022-07-25T06:02:10;17.02;;;11.57;;
25717;SDS011;13574;52.040;5.692;2022-07-25T06:04:39;13.93;;;11.00;;
25717;SDS011;13574;52.040;5.692;2022-07-25T06:07:04;16.65;;;11.73;;
25717;SDS011;13574;52.040;5.692;2022-07-25T06:09:30;15.77;;;11.77;;
25717;SDS011;13574;52.040;5.692;2022-07-25T06:11:56;17.17;;;12.05;;
25717;SDS011;13574;52.040;5.692;2022-07-25T06:14:22;16.75;;;12.40;;
25717;SDS011;13574;52.040;5.692;2022-07-25T06:16:47;17.27;;;12.00;;
25717;SDS011;13574;52.040;5.692;2022-07-25T06:19:13;18.00;;;12.45;;
25717;SDS011;13574;52.040;5.692;2022-07-25T06:24:47;17.40;;;12.75;;
25717;SDS011;13574;52.040;5.692;2022-07-25T06:27:13;15.65;;;13.30;;
25717;SDS011;13574;52.040;5.692;2022-07-25T06:29:39;19.00;;;12.18;;
25717;SDS011;13574;52.040;5.692;2022-07-25T06:32:04;16.30;;;11.07;;
25717;SDS011;13574;52.040;5.692;2022-07-25T06:34:36;15.07;;;11.27;;
25717;SDS011;13574;52.040;5.692;2022-07-25T06:37:02;15.93;;;11.68;;
25717;SDS011;13574;52.040;5.692;2022-07-25T06:39:31;14.20;;;10.52;;
25717;SDS011;13574;52.040;5.692;2022-07-25T06:41:59;13.70;;;11.02;;
25717;SDS011;13574;52.040;5.692;2022-07-25T06:44:30;13.48;;;11.43;;
25717;SDS011;13574;52.040;5.692;2022-07-25T06:46:57;13.23;;;10.55;;
25717;SDS011;13574;52.040;5.692;2022-07-25T06:49:26;21.02;;;10.45;;
25717;SDS011;13574;52.040;5.692;2022-07-25T06:51:52;12.90;;;10.20;;
25717;SDS011;13574;52.040;5.692;2022-07-25T06:54:18;12.60;;;10.30;;
25717;SDS011;13574;52.040;5.692;2022-07-25T06:56:46;13.18;;;10.05;;
25717;SDS011;13574;52.040;5.692;2022-07-25T06:59:16;11.63;;;9.73;;
25717;SDS011;13574;52.040;5.692;2022-07-25T07:02:00;12.45;;;8.93;;
25717;SDS011;13574;52.040;5.692;2022-07-25T07:07:51;11.05;;;6.97;;
25717;SDS011;13574;52.040;5.692;2022-07-25T07:10:20;8.45;;;7.47;;
25717;SDS011;13574;52.040;5.692;2022-07-25T07:12:49;8.73;;;5.88;;
25717;SDS011;13574;52.040;5.692;2022-07-25T07:15:15;8.25;;;6.15;;
25717;SDS011;13574;52.040;5.692;2022-07-25T07:17:41;8.38;;;5.20;;
25717;SDS011;13574;52.040;5.692;2022-07-25T07:20:25;7.50;;;4.82;;
25717;SDS011;13574;52.040;5.692;2022-07-25T07:23:17;8.85;;;4.88;;
25717;SDS011;13574;52.040;5.692;2022-07-25T07:25:45;5.82;;;4.60;;
25717;SDS011;13574;52.040;5.692;2022-07-25T07:28:15;7.05;;;4.88;;
25717;SDS011;13574;52.040;5.692;2022-07-25T07:30:41;6.78;;;4.32;;
25717;SDS011;13574;52.040;5.692;2022-07-25T07:33:10;4.53;;;3.92;;
25717;SDS011;13574;52.040;5.692;2022-07-25T07:35:43;4.53;;;3.95;;
25717;SDS011;13574;52.040;5.692;2022-07-25T07:38:11;4.72;;;3.92;;
25717;SDS011;13574;52.040;5.692;2022-07-25T07:40:42;7.13;;;3.67;;
25717;SDS011;13574;52.040;5.692;2022-07-25T07:43:10;6.28;;;3.40;;
25717;SDS011;13574;52.040;5.692;2022-07-25T07:45:36;4.88;;;3.60;;
25717;SDS011;13574;52.040;5.692;2022-07-25T07:48:07;4.32;;;3.00;;
25717;SDS011;13574;52.040;5.692;2022-07-25T07:50:33;7.03;;;3.17;;
25717;SDS011;13574;52.040;5.692;2022-07-25T07:52:59;6.50;;;3.10;;
25717;SDS011;13574;52.040;5.692;2022-07-25T07:55:28;3.70;;;2.95;;
25717;SDS011;13574;52.040;5.692;2022-07-25T07:58:30;5.20;;;3.15;;
25717;SDS011;13574;52.040;5.692;2022-07-25T08:01:02;12.90;;;3.33;;
25717;SDS011;13574;52.040;5.692;2022-07-25T08:03:49;6.40;;;3.03;;
25717;SDS011;13574;52.040;5.692;2022-07-25T08:06:21;3.55;;;2.80;;
25717;SDS011;13574;52.040;5.692;2022-07-25T08:08:50;5.07;;;2.97;;
25717;SDS011;13574;52.040;5.692;2022-07-25T08:11:19;9.80;;;2.85;;
25717;SDS011;13574;52.040;5.692;2022-07-25T08:16:36;5.20;;;2.85;;
25717;SDS011;13574;52.040;5.692;2022-07-25T08:19:04;4.68;;;2.72;;
25717;SDS011;13574;52.040;5.692;2022-07-25T08:21:35;4.65;;;2.88;;
25717;SDS011;13574;52.040;5.692;2022-07-25T08:24:27;5.88;;;2.70;;
25717;SDS011;13574;52.040;5.692;2022-07-25T08:27:04;4.25;;;2.35;;
25717;SDS011;13574;52.040;5.692;2022-07-25T08:29:43;4.60;;;2.60;;
25717;SDS011;13574;52.040;5.692;2022-07-25T08:32:14;5.82;;;2.95;;
25717;SDS011;13574;52.040;5.692;2022-07-25T08:40:06;4.97;;;2.83;;
25717;SDS011;13574;52.040;5.692;2022-07-25T08:42:38;4.03;;;2.70;;
25717;SDS011;13574;52.040;5.692;2022-07-25T09:08:59;2.35;;;1.50;;
25717;SDS011;13574;52.040;5.692;2022-07-25T09:11:38;5.05;;;1.40;;
25717;SDS011;13574;52.040;5.692;2022-07-25T09:14:10;2.60;;;1.50;;
25717;SDS011;13574;52.040;5.692;2022-07-25T09:19:34;4.68;;;1.60;;
25717;SDS011;13574;52.040;5.692;2022-07-25T09:25:25;5.57;;;1.75;;
25717;SDS011;13574;52.040;5.692;2022-07-25T09:27:54;7.30;;;1.92;;
25717;SDS011;13574;52.040;5.692;2022-07-25T09:30:24;4.97;;;1.60;;
25717;SDS011;13574;52.040;5.692;2022-07-25T09:32:58;6.80;;;1.92;;
25717;SDS011;13574;52.040;5.692;2022-07-25T09:35:30;4.57;;;1.45;;
25717;SDS011;13574;52.040;5.692;2022-07-25T09:38:09;3.35;;;1.60;;
25717;SDS011;13574;52.040;5.692;2022-07-25T09:40:37;5.03;;;1.50;;
25717;SDS011;13574;52.040;5.692;2022-07-25T09:43:04;4.78;;;1.70;;
25717;SDS011;13574;52.040;5.692;2022-07-25T09:45:51;6.10;;;1.80;;
25717;SDS011;13574;52.040;5.692;2022-07-25T09:48:28;12.43;;;1.98;;
25717;SDS011;13574;52.040;5.692;2022-07-25T09:50:56;5.15;;;1.85;;
25717;SDS011;13574;52.040;5.692;2022-07-25T09:53:22;7.22;;;1.80;;
25717;SDS011;13574;52.040;5.692;2022-07-25T09:58:43;5.47;;;1.70;;
25717;SDS011;13574;52.040;5.692;2022-07-25T10:01:12;6.47;;;1.95;;
25717;SDS011;13574;52.040;5.692;2022-07-25T10:06:29;5.10;;;1.83;;
25717;SDS011;13574;52.040;5.692;2022-07-25T10:09:24;4.88;;;1.83;;
25717;SDS011;13574;52.040;5.692;2022-07-25T10:14:40;6.45;;;1.90;;
25717;SDS011;13574;52.040;5.692;2022-07-25T10:17:26;5.97;;;2.13;;
25717;SDS011;13574;52.040;5.692;2022-07-25T10:19:54;7.20;;;2.00;;
25717;SDS011;13574;52.040;5.692;2022-07-25T10:22:21;20.90;;;3.05;;
25717;SDS011;13574;52.040;5.692;2022-07-25T10:24:47;13.30;;;3.00;;
25717;SDS011;13574;52.040;5.692;2022-07-25T10:27:22;5.05;;;2.00;;
25717;SDS011;13574;52.040;5.692;2022-07-25T10:29:51;6.13;;;1.90;;
25717;SDS011;13574;52.040;5.692;2022-07-25T10:32:24;4.50;;;2.10;;
25717;SDS011;13574;52.040;5.692;2022-07-25T10:34:50;4.65;;;2.15;;
25717;SDS011;13574;52.040;5.692;2022-07-25T10:37:18;4.07;;;1.90;;
25717;SDS011;13574;52.040;5.692;2022-07-25T10:39:53;5.50;;;1.65;;
25717;SDS011;13574;52.040;5.692;2022-07-25T10:42:21;3.28;;;1.83;;
25717;SDS011;13574;52.040;5.692;2022-07-25T10:44:47;5.72;;;1.83;;
25717;SDS011;13574;52.040;5.692;2022-07-25T10:47:16;6.00;;;1.55;;
25717;SDS011;13574;52.040;5.692;2022-07-25T10:49:43;5.80;;;2.20;;
25717;SDS011;13574;52.040;5.692;2022-07-25T10:52:16;4.68;;;1.67;;
25717;SDS011;13574;52.040;5.692;2022-07-25T10:54:55;4.63;;;1.90;;
25717;SDS011;13574;52.040;5.692;2022-07-25T10:57:24;4.03;;;1.70;;
25717;SDS011;13574;52.040;5.692;2022-07-25T10:59:51;6.93;;;2.00;;
25717;SDS011;13574;52.040;5.692;2022-07-25T11:02:23;5.50;;;2.40;;
25717;SDS011;13574;52.040;5.692;2022-07-25T11:04:58;4.25;;;1.90;;
25717;SDS011;13574;52.040;5.692;2022-07-25T11:07:25;3.72;;;1.77;;
25717;SDS011;13574;52.040;5.692;2022-07-25T11:09:59;4.60;;;2.00;;
25717;SDS011;13574;52.040;5.692;2022-07-25T11:12:26;5.97;;;2.33;;
25717;SDS011;13574;52.040;5.692;2022-07-25T11:14:59;5.75;;;2.20;;
25717;SDS011;13574;52.040;5.692;2022-07-25T11:17:26;7.13;;;2.10;;
25717;SDS011;13574;52.040;5.692;2022-07-25T11:19:54;6.95;;;2.40;;
25717;SDS011;13574;52.040;5.692;2022-07-25T11:22:27;8.38;;;2.25;;
25717;SDS011;13574;52.040;5.692;2022-07-25T11:24:54;10.23;;;2.60;;
25717;SDS011;13574;52.040;5.692;2022-07-25T11:27:24;5.73;;;2.20;;
25717;SDS011;13574;52.040;5.692;2022-07-25T11:29:51;6.32;;;2.05;;
25717;SDS011;13574;52.040;5.692;2022-07-25T11:32:17;6.22;;;2.30;;
25717;SDS011;13574;52.040;5.692;2022-07-25T11:34:52;9.20;;;2.45;;
25717;SDS011;13574;52.040;5.692;2022-07-25T11:37:18;9.43;;;2.55;;
25717;SDS011;13574;52.040;5.692;2022-07-25T11:39:45;10.35;;;2.42;;
25717;SDS011;13574;52.040;5.692;2022-07-25T11:42:13;7.32;;;2.20;;
25717;SDS011;13574;52.040;5.692;2022-07-25T11:44:48;8.30;;;2.10;;
25717;SDS011;13574;52.040;5.692;2022-07-25T11:50:03;7.05;;;2.10;;
25717;SDS011;13574;52.040;5.692;2022-07-25T11:52:30;8.52;;;2.55;;
25717;SDS011;13574;52.040;5.692;2022-07-25T11:55:02;8.20;;;2.10;;
25717;SDS011;13574;52.040;5.692;2022-07-25T11:57:30;3.63;;;1.70;;
25717;SDS011;13574;52.040;5.692;2022-07-25T12:00:04;7.38;;;2.20;;
25717;SDS011;13574;52.040;5.692;2022-07-25T12:02:38;5.80;;;2.00;;
25717;SDS011;13574;52.040;5.692;2022-07-25T12:05:10;17.92;;;3.38;;
25717;SDS011;13574;52.040;5.692;2022-07-25T12:08:06;15.27;;;3.10;;
25717;SDS011;13574;52.040;5.692;2022-07-25T12:10:36;15.50;;;3.28;;
25717;SDS011;13574;52.040;5.692;2022-07-25T12:13:06;9.45;;;2.90;;
25717;SDS011;13574;52.040;5.692;2022-07-25T12:15:40;7.15;;;2.40;;
25717;SDS011;13574;52.040;5.692;2022-07-25T12:18:11;7.75;;;2.70;;
25717;SDS011;13574;52.040;5.692;2022-07-25T12:20:38;8.00;;;2.80;;
25717;SDS011;13574;52.040;5.692;2022-07-25T12:23:06;8.77;;;2.90;;
25717;SDS011;13574;52.040;5.692;2022-07-25T12:25:38;5.13;;;2.85;;
25717;SDS011;13574;52.040;5.692;2022-07-25T12:28:06;6.97;;;2.97;;
25717;SDS011;13574;52.040;5.692;2022-07-25T12:30:39;7.03;;;3.30;;
25717;SDS011;13574;52.040;5.692;2022-07-25T12:33:08;7.63;;;3.15;;
25717;SDS011;13574;52.040;5.692;2022-07-25T12:35:35;7.87;;;3.07;;
25717;SDS011;13574;52.040;5.692;2022-07-25T12:38:20;8.07;;;3.33;;
25717;SDS011;13574;52.040;5.692;2022-07-25T12:40:49;8.18;;;3.15;;
25717;SDS011;13574;52.040;5.692;2022-07-25T12:43:29;8.32;;;3.03;;
25717;SDS011;13574;52.040;5.692;2022-07-25T12:45:55;9.85;;;3.03;;
25717;SDS011;13574;52.040;5.692;2022-07-25T12:48:21;8.77;;;2.80;;
25717;SDS011;13574;52.040;5.692;2022-07-25T12:50:52;8.93;;;2.95;;
25717;SDS011;13574;52.040;5.692;2022-07-25T12:53:18;5.75;;;2.78;;
25717;SDS011;13574;52.040;5.692;2022-07-25T12:55:44;11.45;;;3.20;;
25717;SDS011;13574;52.040;5.692;2022-07-25T12:58:09;9.98;;;3.30;;
25717;SDS011;13574;52.040;5.692;2022-07-25T13:00:36;6.97;;;3.10;;
25717;SDS011;13574;52.040;5.692;2022-07-25T13:03:07;7.95;;;3.03;;
25717;SDS011;13574;52.040;5.692;2022-07-25T13:05:33;16.17;;;3.90;;
25717;SDS011;13574;52.040;5.692;2022-07-25T13:07:59;10.30;;;3.72;;
25717;SDS011;13574;52.040;5.692;2022-07-25T13:10:25;11.65;;;3.10;;
25717;SDS011;13574;52.040;5.692;2022-07-25T13:12:50;7.20;;;3.00;;
25717;SDS011;13574;52.040;5.692;2022-07-25T13:15:16;7.90;;;2.95;;
25717;SDS011;13574;52.040;5.692;2022-07-25T13:17:44;10.85;;;3.60;;
25717;SDS011;13574;52.040;5.692;2022-07-25T13:20:10;8.82;;;3.10;;
25717;SDS011;13574;52.040;5.692;2022-07-25T13:22:36;7.50;;;2.90;;
25717;SDS011;13574;52.040;5.692;2022-07-25T13:25:02;11.07;;;3.58;;
25717;SDS011;13574;52.040;5.692;2022-07-25T13:27:28;10.30;;;3.30;;
25717;SDS011;13574;52.040;5.692;2022-07-25T13:29:54;9.50;;;3.30;;
25717;SDS011;13574;52.040;5.692;2022-07-25T13:32:23;9.25;;;3.33;;
25717;SDS011;13574;52.040;5.692;2022-07-25T13:34:50;8.75;;;2.90;;
25717;SDS011;13574;52.040;5.692;2022-07-25T13:37:16;9.68;;;3.60;;
25717;SDS011;13574;52.040;5.692;2022-07-25T13:39:42;8.15;;;3.72;;
25717;SDS011;13574;52.040;5.692;2022-07-25T13:42:08;9.82;;;3.15;;
25717;SDS011;13574;52.040;5.692;2022-07-25T13:44:35;11.18;;;3.40;;
25717;SDS011;13574;52.040;5.692;2022-07-25T13:47:01;11.25;;;3.10;;
25717;SDS011;13574;52.040;5.692;2022-07-25T13:49:26;11.68;;;3.05;;
25717;SDS011;13574;52.040;5.692;2022-07-25T13:51:52;10.20;;;2.90;;
25717;SDS011;13574;52.040;5.692;2022-07-25T13:54:18;7.38;;;2.80;;
25717;SDS011;13574;52.040;5.692;2022-07-25T13:56:43;8.82;;;2.90;;
25717;SDS011;13574;52.040;5.692;2022-07-25T13:59:09;7.85;;;2.80;;
25717;SDS011;13574;52.040;5.692;2022-07-25T14:01:35;8.85;;;3.00;;
25717;SDS011;13574;52.040;5.692;2022-07-25T14:04:00;6.25;;;2.67;;
25717;SDS011;13574;52.040;5.692;2022-07-25T14:06:26;10.30;;;2.63;;
25717;SDS011;13574;52.040;5.692;2022-07-25T14:08:52;5.53;;;2.35;;
25717;SDS011;13574;52.040;5.692;2022-07-25T14:11:17;7.82;;;2.55;;
25717;SDS011;13574;52.040;5.692;2022-07-25T14:13:43;7.38;;;2.60;;
25717;SDS011;13574;52.040;5.692;2022-07-25T14:16:09;8.68;;;3.10;;
25717;SDS011;13574;52.040;5.692;2022-07-25T14:18:38;5.88;;;2.67;;
25717;SDS011;13574;52.040;5.692;2022-07-25T14:21:04;7.70;;;2.67;;
25717;SDS011;13574;52.040;5.692;2022-07-25T14:23:29;8.38;;;3.15;;
25717;SDS011;13574;52.040;5.692;2022-07-25T14:25:55;8.23;;;3.47;;
25717;SDS011;13574;52.040;5.692;2022-07-25T14:28:22;11.15;;;3.53;;
25717;SDS011;13574;52.040;5.692;2022-07-25T14:30:48;7.72;;;2.95;;
25717;SDS011;13574;52.040;5.692;2022-07-25T14:33:14;10.57;;;2.90;;
25717;SDS011;13574;52.040;5.692;2022-07-25T14:35:39;9.68;;;3.13;;
25717;SDS011;13574;52.040;5.692;2022-07-25T14:38:05;10.23;;;3.22;;
25717;SDS011;13574;52.040;5.692;2022-07-25T14:40:31;7.63;;;2.55;;
25717;SDS011;13574;52.040;5.692;2022-07-25T14:42:57;8.60;;;2.40;;
25717;SDS011;13574;52.040;5.692;2022-07-25T14:45:23;9.98;;;2.63;;
25717;SDS011;13574;52.040;5.692;2022-07-25T14:47:48;12.32;;;2.45;;
25717;SDS011;13574;52.040;5.692;2022-07-25T14:50:14;9.38;;;2.67;;
25717;SDS011;13574;52.040;5.692;2022-07-25T14:52:43;7.97;;;2.25;;
25717;SDS011;13574;52.040;5.692;2022-07-25T14:55:09;5.00;;;2.03;;
25717;SDS011;13574;52.040;5.692;2022-07-25T14:57:34;15.98;;;2.60;;
25717;SDS011;13574;52.040;5.692;2022-07-25T15:00:00;11.18;;;1.92;;
25717;SDS011;13574;52.040;5.692;2022-07-25T15:02:28;10.10;;;2.00;;
25717;SDS011;13574;52.040;5.692;2022-07-25T15:04:53;8.63;;;1.88;;
25717;SDS011;13574;52.040;5.692;2022-07-25T15:07:19;9.55;;;2.00;;
25717;SDS011;13574;52.040;5.692;2022-07-25T15:09:45;9.02;;;1.85;;
25717;SDS011;13574;52.040;5.692;2022-07-25T15:12:10;9.88;;;1.90;;
25717;SDS011;13574;52.040;5.692;2022-07-25T15:14:38;6.20;;;1.60;;
25717;SDS011;13574;52.040;5.692;2022-07-25T15:17:04;5.07;;;1.52;;
25717;SDS011;13574;52.040;5.692;2022-07-25T15:19:30;9.60;;;1.70;;
25717;SDS011;13574;52.040;5.692;2022-07-25T15:21:55;6.13;;;1.70;;
25717;SDS011;13574;52.040;5.692;2022-07-25T15:24:21;9.02;;;1.38;;
25717;SDS011;13574;52.040;5.692;2022-07-25T15:26:47;5.18;;;1.00;;
25717;SDS011;13574;52.040;5.692;2022-07-25T15:29:12;6.82;;;1.40;;
25717;SDS011;13574;52.040;5.692;2022-07-25T15:31:44;12.25;;;2.55;;
25717;SDS011;13574;52.040;5.692;2022-07-25T15:34:12;11.35;;;1.80;;
25717;SDS011;13574;52.040;5.692;2022-07-25T15:36:38;6.15;;;1.67;;
25717;SDS011;13574;52.040;5.692;2022-07-25T15:39:04;9.13;;;2.55;;
25717;SDS011;13574;52.040;5.692;2022-07-25T15:41:30;8.85;;;2.55;;
25717;SDS011;13574;52.040;5.692;2022-07-25T15:43:56;8.90;;;2.47;;
25717;SDS011;13574;52.040;5.692;2022-07-25T15:46:21;13.68;;;2.63;;